Time;durP1;ratioP1;P1;durP2;ratioP2;P2;SDS_P1;SDS_P2;PMS_P1;PMS_P2;Temp;Humidity;BMP_temperature;BMP_pressure;BME280_temperature;BME280_humidity;BME280_pressure;Samples;Min_cycle;Max_cycle;Signal;HPM_P1;HPM_P2
2021/12/24 00:01:24;;;;;;;;;31.50;28.25;;;;;9.33;73.90;100671.94;5065931;27;45796;-66
2021/12/24 00:04:00;;;;;;;;;39.75;36.00;;;;;9.13;74.18;100640.47;5050336;28;45994;-67
2021/12/24 00:06:28;;;;;;;;;15.25;13.00;;;;;9.34;74.07;100659.72;5049441;28;45696;-68
2021/12/24 00:08:55;;;;;;;;;37.75;33.00;;;;;9.34;74.16;100664.97;5051187;28;45461;-68
2021/12/24 00:11:23;;;;;;;;;29.00;28.25;;;;;9.32;74.07;100662.34;5070384;28;45404;-68
2021/12/24 00:13:56;;;;;;;;;33.00;29.50;;;;;9.38;73.87;100671.09;5067147;28;45820;-67
2021/12/24 00:35:31;;;;;;;;;38.75;30.50;;;;;9.42;74.21;100652.81;5066145;28;45573;-69
2021/12/24 00:38:03;;;;;;;;;33.75;29.00;;;;;9.42;74.00;100655.44;5051706;28;45870;-68
2021/12/24 00:40:34;;;;;;;;;29.75;28.00;;;;;9.32;73.77;100632.69;5063484;28;45528;-65
2021/12/24 00:43:00;;;;;;;;;30.75;27.00;;;;;9.46;73.75;100645.84;5061794;28;45904;-67
2021/12/24 00:45:30;;;;;;;;;30.00;26.50;;;;;9.45;73.84;100642.38;5060731;28;45627;-67
2021/12/24 00:47:57;;;;;;;;;31.50;29.25;;;;;9.33;73.74;100617.03;5064371;28;45514;-68
2021/12/24 00:50:30;;;;;;;;;35.00;30.25;;;;;9.45;74.16;100629.31;5058374;28;45736;-67
2021/12/24 00:53:02;;;;;;;;;31.50;28.00;;;;;9.29;73.94;100602.19;5065077;28;45587;-66
2021/12/24 00:55:30;;;;;;;;;31.25;27.25;;;;;9.44;73.94;100613.59;5074525;28;45432;-66
2021/12/24 00:58:04;;;;;;;;;33.75;29.25;;;;;9.45;73.88;100603.16;5062266;28;45509;-67
2021/12/24 01:00:38;;;;;;;;;29.00;25.25;;;;;9.22;73.88;100561.22;5058258;28;45853;-65
2021/12/24 01:03:06;;;;;;;;;31.75;30.25;;;;;9.49;73.93;100604.03;5064571;28;46167;-67
2021/12/24 01:05:33;;;;;;;;;36.50;31.75;;;;;9.32;74.02;100564.75;5072860;28;45683;-66
2021/12/24 01:08:00;;;;;;;;;35.25;29.25;;;;;9.42;73.84;100577.00;5064637;28;45448;-66
2021/12/24 01:10:37;;;;;;;;;36.25;32.50;;;;;9.24;73.59;100554.28;5057027;28;45283;-66
2021/12/24 01:13:04;;;;;;;;;39.00;31.75;;;;;9.40;74.05;100575.25;5075065;28;45602;-66
2021/12/24 01:15:32;;;;;;;;;35.00;29.50;;;;;9.36;74.42;100574.34;5076671;28;45535;-66
2021/12/24 01:18:10;;;;;;;;;39.50;32.75;;;;;9.16;74.17;100548.16;5064218;28;45417;-69
2021/12/24 01:26:00;;;;;;;;;35.50;33.50;;;;;9.36;74.10;100578.72;5076030;28;45452;-67
2021/12/24 01:39:37;;;;;;;;;30.50;26.75;;;;;9.40;73.88;100583.97;5076386;28;45475;-66
2021/12/24 01:44:48;;;;;;;;;31.25;29.00;;;;;9.36;74.07;100578.72;5076867;28;46626;-66
2021/12/24 01:47:13;;;;;;;;;32.00;29.75;;;;;9.40;73.93;100588.34;5076747;28;45323;-66
2021/12/24 01:49:39;;;;;;;;;29.00;27.25;;;;;9.35;73.95;100583.09;5077310;28;45279;-66
2021/12/24 01:52:06;;;;;;;;;30.50;29.50;;;;;9.24;73.82;100543.81;5077411;28;45748;-70
2021/12/24 01:54:31;;;;;;;;;33.75;30.50;;;;;9.40;74.07;100580.50;5075668;27;46134;-67
2021/12/24 01:56:57;;;;;;;;;40.25;32.75;;;;;9.44;73.95;100587.44;5070839;28;45441;-67
2021/12/24 01:59:23;;;;;;;;;30.50;28.00;;;;;9.44;73.93;100580.47;5077053;28;45472;-67
2021/12/24 02:01:51;;;;;;;;;23.50;23.50;;;;;9.46;73.64;100580.50;5080647;28;45420;-68
2021/12/24 02:04:18;;;;;;;;;33.50;30.75;;;;;9.49;73.74;100581.41;5078498;28;45480;-67
2021/12/24 02:06:44;;;;;;;;;34.25;29.50;;;;;9.49;73.50;100575.28;5076472;28;45396;-67
2021/12/24 02:09:11;;;;;;;;;31.75;29.75;;;;;9.52;73.54;100591.00;5076339;28;45731;-66
2021/12/24 02:11:38;;;;;;;;;31.50;26.75;;;;;9.38;73.66;100577.00;5076548;28;45490;-66
2021/12/24 02:14:10;;;;;;;;;35.75;30.00;;;;;9.51;73.58;100599.69;5076017;28;45464;-66
2021/12/24 02:29:57;;;;;;;;;36.50;30.25;;;;;9.44;73.74;100550.84;5075969;28;45331;-68
2021/12/24 02:32:23;;;;;;;;;36.75;31.00;;;;;9.44;73.73;100559.56;5079566;28;45495;-68
2021/12/24 02:34:49;;;;;;;;;35.25;32.50;;;;;9.46;73.64;100564.81;5075989;28;47045;-68
2021/12/24 02:37:15;;;;;;;;;30.00;28.75;;;;;9.40;73.89;100554.34;5076091;28;45331;-69
2021/12/24 02:39:40;;;;;;;;;38.75;33.00;;;;;9.39;74.20;100555.19;5076493;28;45483;-68
2021/12/24 02:42:15;;;;;;;;;37.25;33.50;;;;;9.41;74.14;100563.91;5076130;28;45697;-68
2021/12/24 02:44:41;;;;;;;;;41.50;33.00;;;;;9.37;73.94;100551.69;5079140;28;45396;-69
2021/12/24 02:47:15;;;;;;;;;41.50;36.00;;;;;9.30;73.89;100542.97;5076451;28;45644;-68
2021/12/24 02:54:58;;;;;;;;;39.00;31.50;;;;;9.21;74.31;100535.09;5075901;28;45803;-68
2021/12/24 02:57:27;;;;;;;;;39.50;33.00;;;;;9.27;74.26;100554.28;5073947;27;45478;-67
2021/12/24 03:00:06;;;;;;;;;41.50;35.00;;;;;9.15;74.30;100535.06;5074782;27;45727;-67
2021/12/24 03:02:33;;;;;;;;;33.25;30.50;;;;;9.24;74.34;100550.78;5078661;27;45372;-66
2021/12/24 03:04:59;;;;;;;;;36.25;32.75;;;;;9.23;74.51;100549.91;5075319;28;45555;-67
2021/12/24 03:07:25;;;;;;;;;39.00;34.00;;;;;9.21;74.45;100548.16;5075351;28;45731;-65
2021/12/24 03:09:51;;;;;;;;;38.00;31.50;;;;;9.26;74.26;100552.53;5074233;27;45598;-67
2021/12/24 03:12:17;;;;;;;;;36.50;31.00;;;;;9.25;74.28;100547.28;5078419;27;45520;-67
2021/12/24 03:14:42;;;;;;;;;37.00;32.25;;;;;9.29;74.40;100549.06;5079245;28;45374;-66
2021/12/24 03:17:12;;;;;;;;;39.25;33.25;;;;;9.25;74.38;100547.28;5076798;28;45548;-67
2021/12/24 03:19:38;;;;;;;;;33.50;31.75;;;;;9.23;74.39;100541.19;5078556;27;45358;-66
2021/12/24 03:24:49;;;;;;;;;39.00;32.00;;;;;9.27;74.18;100537.72;5076896;28;45440;-67
2021/12/24 03:27:15;;;;;;;;;38.50;32.50;;;;;9.20;74.14;100521.13;5078520;28;45378;-66
2021/12/24 03:29:41;;;;;;;;;31.50;29.75;;;;;9.30;74.11;100532.50;5077848;28;45535;-66
2021/12/24 03:32:07;;;;;;;;;36.75;30.50;;;;;9.28;74.08;100526.41;5078659;28;45393;-67
2021/12/24 03:34:33;;;;;;;;;35.00;29.75;;;;;9.30;74.17;100515.09;5078215;28;46209;-65
2021/12/24 03:36:59;;;;;;;;;40.75;31.00;;;;;9.32;74.09;100502.91;5081444;28;45571;-67
2021/12/24 03:39:25;;;;;;;;;32.00;29.00;;;;;9.38;74.13;100511.66;5078709;28;45396;-68
2021/12/24 03:41:51;;;;;;;;;38.25;31.00;;;;;9.30;74.00;100501.13;5078075;28;45445;-67
2021/12/24 03:44:18;;;;;;;;;38.75;31.00;;;;;9.33;73.86;100507.25;5076561;28;46334;-66
2021/12/24 03:47:33;;;;;;;;;39.00;27.50;;;;;9.40;73.82;100512.53;5076523;28;45806;-68
2021/12/24 03:49:40;;;;;;;;;33.00;30.00;;;;;9.41;73.91;100519.47;5080624;27;45542;-68
2021/12/24 03:54:58;;;;;;;;;31.50;27.00;;;;;9.43;73.82;100526.47;5077266;28;46068;-68
2021/12/24 03:57:37;;;;;;;;;27.25;26.50;;;;;9.43;73.77;100515.13;5075506;27;45463;-67
2021/12/24 04:00:09;;;;;;;;;34.25;30.25;;;;;9.41;73.94;100507.28;5074362;28;45342;-68
2021/12/24 04:02:34;;;;;;;;;34.50;31.50;;;;;9.42;73.81;100495.06;5074173;28;45902;-66
2021/12/24 04:05:00;;;;;;;;;34.00;30.25;;;;;9.41;73.84;100496.81;5107297;27;45346;-68
2021/12/24 04:07:25;;;;;;;;;42.50;34.00;;;;;9.37;73.82;100483.75;5074887;28;45839;-67
2021/12/24 04:10:39;;;;;;;;;36.25;32.25;;;;;9.36;73.77;100490.72;5075106;28;45368;-67
2021/12/24 04:12:39;;;;;;;;;38.50;31.75;;;;;9.28;73.73;100471.53;5080306;27;45318;-68
2021/12/24 04:15:06;;;;;;;;;42.50;34.50;;;;;9.38;73.95;100483.75;5074242;28;45704;-66
2021/12/24 04:17:33;;;;;;;;;38.00;34.25;;;;;9.34;73.89;100489.84;5073764;28;45486;-69
2021/12/24 04:25:29;;;;;;;;;40.75;33.75;;;;;9.29;74.18;100483.72;5075588;28;45331;-66
2021/12/24 04:28:00;;;;;;;;;45.75;36.25;;;;;9.16;74.18;100456.69;5056267;28;45421;-67
2021/12/24 04:30:32;;;;;;;;;46.25;36.25;;;;;9.16;74.68;100461.91;5052044;28;45464;-66
2021/12/24 04:33:03;;;;;;;;;42.75;33.50;;;;;9.17;74.57;100462.78;5062852;28;45405;-66
2021/12/24 04:38:24;;;;;;;;;47.25;35.50;;;;;9.00;74.98;100428.75;5074241;27;45796;-66
2021/12/24 04:51:53;;;;;;;;;37.00;31.75;;;;;9.01;75.41;100440.94;5053180;28;45427;-67
2021/12/24 05:10:09;;;;;;;;;39.50;33.50;;;;;8.91;76.21;100430.47;5073820;27;45513;-68
2021/12/24 05:12:35;;;;;;;;;38.75;30.50;;;;;8.93;76.26;100446.16;5073517;27;45408;-68
2021/12/24 05:15:03;;;;;;;;;38.50;32.00;;;;;8.91;76.30;100451.34;5077853;27;45298;-68
2021/12/24 05:17:44;;;;;;;;;29.50;27.00;;;;;8.90;75.85;100426.13;5077049;28;45542;-68
2021/12/24 05:22:54;;;;;;;;;32.25;27.75;;;;;8.96;75.74;100419.16;5079572;28;45345;-67
2021/12/24 05:25:19;;;;;;;;;32.50;30.00;;;;;9.01;75.79;100420.03;5081371;28;45371;-68
2021/12/24 05:27:45;;;;;;;;;37.25;31.00;;;;;9.03;75.91;100423.53;5080036;28;46025;-68
2021/12/24 05:30:11;;;;;;;;;30.00;29.75;;;;;9.11;75.48;100422.72;5076512;28;45493;-68
2021/12/24 05:32:37;;;;;;;;;33.00;30.00;;;;;9.04;75.76;100415.72;5077067;28;45385;-68
2021/12/24 05:35:04;;;;;;;;;31.75;27.50;;;;;9.04;75.94;100422.66;5077346;28;45357;-68
2021/12/24 05:37:30;;;;;;;;;42.50;33.50;;;;;9.05;76.27;100419.19;5079390;28;45445;-68
2021/12/24 05:39:55;;;;;;;;;35.75;31.25;;;;;8.97;76.68;100413.06;5080698;28;45291;-68
2021/12/24 05:42:23;;;;;;;;;30.00;28.25;;;;;8.97;76.37;100410.44;5076947;28;45544;-67
2021/12/24 05:44:49;;;;;;;;;27.75;26.50;;;;;9.01;76.30;100412.22;5078233;28;45506;-67
2021/12/24 05:47:15;;;;;;;;;25.50;21.75;;;;;8.93;76.26;100395.66;5078786;28;45372;-66
2021/12/24 05:49:41;;;;;;;;;40.75;34.00;;;;;9.00;76.80;100419.19;5076341;27;45467;-67
2021/12/24 05:52:07;;;;;;;;;29.75;24.25;;;;;9.00;77.09;100423.53;5076555;28;45343;-67
2021/12/24 05:54:33;;;;;;;;;34.50;31.00;;;;;8.99;77.04;100430.47;5076549;28;45449;-68
2021/12/24 05:56:59;;;;;;;;;31.50;27.50;;;;;8.96;76.75;100434.84;5076133;27;46027;-68
2021/12/24 05:59:24;;;;;;;;;35.75;32.25;;;;;8.97;77.31;100437.47;5076751;27;45749;-67
2021/12/24 06:01:50;;;;;;;;;35.25;30.75;;;;;9.01;77.25;100438.34;5076381;28;45674;-67
2021/12/24 06:04:16;;;;;;;;;34.25;30.50;;;;;9.04;77.05;100436.63;5076534;28;45341;-66
2021/12/24 06:06:41;;;;;;;;;29.75;26.00;;;;;9.04;77.33;100435.72;5076440;28;46041;-67
2021/12/24 06:09:07;;;;;;;;;33.75;25.50;;;;;9.11;77.22;100434.88;5075915;28;45487;-66
2021/12/24 06:11:32;;;;;;;;;33.00;27.75;;;;;9.13;76.99;100436.66;5076241;28;45573;-67
2021/12/24 06:14:06;;;;;;;;;32.50;26.50;;;;;9.19;77.10;100433.19;5108887;27;45466;-68
2021/12/24 06:16:31;;;;;;;;;28.50;26.00;;;;;9.23;76.84;100432.31;5075963;28;46313;-67
2021/12/24 06:19:01;;;;;;;;;29.00;27.00;;;;;9.27;76.90;100441.91;5078666;28;45794;-68
2021/12/24 06:21:26;;;;;;;;;28.50;26.00;;;;;9.28;77.03;100438.44;5077177;28;45557;-68
2021/12/24 06:23:52;;;;;;;;;26.50;21.00;;;;;9.28;76.69;100427.97;5075133;28;45673;-68
2021/12/24 06:26:17;;;;;;;;;29.50;26.00;;;;;9.39;76.99;100442.81;5078888;28;45454;-68
2021/12/24 06:28:43;;;;;;;;;36.50;27.25;;;;;9.30;77.18;100423.63;5076564;28;45523;-67
2021/12/24 06:31:09;;;;;;;;;27.25;27.25;;;;;9.34;76.99;100414.03;5076057;28;45467;-67
2021/12/24 06:33:35;;;;;;;;;22.25;22.25;;;;;9.46;76.74;100431.47;5109089;27;45364;-67
2021/12/24 06:36:01;;;;;;;;;30.25;26.75;;;;;9.47;77.08;100435.88;5079916;28;46143;-67
2021/12/24 06:38:26;;;;;;;;;31.00;28.25;;;;;9.43;77.80;100427.13;5082646;27;45567;-68
2021/12/24 06:40:55;;;;;;;;;31.00;26.75;;;;;9.41;77.60;100422.78;5079833;28;45494;-67
2021/12/24 06:43:21;;;;;;;;;30.00;26.25;;;;;9.43;77.65;100416.66;5081390;28;45409;-69
2021/12/24 06:45:49;;;;;;;;;23.75;22.50;;;;;9.45;77.34;100421.91;5084593;28;46398;-67
2021/12/24 06:48:14;;;;;;;;;28.50;21.75;;;;;9.47;77.05;100421.03;5116663;27;45472;-68
2021/12/24 06:50:40;;;;;;;;;19.75;18.00;;;;;9.48;77.64;100416.69;5080272;28;45401;-68
2021/12/24 06:53:06;;;;;;;;;25.50;25.25;;;;;9.41;77.79;100402.72;5077908;28;45280;-67
2021/12/24 06:55:31;;;;;;;;;28.75;23.75;;;;;9.49;77.80;100418.41;5077948;28;45747;-68
2021/12/24 06:57:57;;;;;;;;;28.50;25.50;;;;;9.47;78.46;100426.28;5079422;28;45566;-67
2021/12/24 07:00:24;;;;;;;;;20.75;19.25;;;;;9.38;78.17;100412.31;5081118;27;45386;-68
2021/12/24 07:02:49;;;;;;;;;26.25;25.50;;;;;9.37;78.77;100405.31;5082733;28;45520;-68
2021/12/24 07:05:16;;;;;;;;;29.50;25.50;;;;;9.42;78.94;100422.78;5079764;28;46304;-66
2021/12/24 07:07:42;;;;;;;;;28.00;24.75;;;;;9.39;78.86;100416.66;5079926;28;45324;-67
2021/12/24 07:10:08;;;;;;;;;28.25;26.25;;;;;9.40;79.37;100419.28;5079660;28;45425;-67
2021/12/24 07:12:34;;;;;;;;;27.75;21.75;;;;;9.38;79.10;100414.94;5079990;28;45433;-66
2021/12/24 07:15:00;;;;;;;;;29.50;27.75;;;;;9.36;79.76;100420.16;5077270;28;45908;-68
2021/12/24 07:17:26;;;;;;;;;29.00;23.50;;;;;9.34;79.50;100414.91;5075205;28;45639;-68
2021/12/24 07:19:51;;;;;;;;;29.50;27.25;;;;;9.21;79.90;100404.44;5075359;28;45468;-67
2021/12/24 07:22:18;;;;;;;;;22.75;22.75;;;;;9.23;80.17;100402.69;5074249;28;45418;-68
2021/12/24 07:24:44;;;;;;;;;31.50;27.75;;;;;9.29;79.78;100407.94;5108581;27;46577;-68
2021/12/24 07:27:10;;;;;;;;;33.25;30.25;;;;;9.27;79.94;100407.91;5074195;28;45448;-67
2021/12/24 07:29:36;;;;;;;;;29.25;25.25;;;;;9.33;79.35;100414.91;5075190;28;45736;-69
2021/12/24 07:32:02;;;;;;;;;33.25;29.50;;;;;9.35;79.62;100407.97;5075614;28;45416;-67
2021/12/24 07:34:28;;;;;;;;;30.25;25.25;;;;;9.35;79.47;100405.34;5074857;28;45783;-67
2021/12/24 07:36:54;;;;;;;;;31.00;26.00;;;;;9.32;79.85;100401.00;5078135;28;45789;-66
2021/12/24 07:39:19;;;;;;;;;22.00;21.25;;;;;9.32;80.14;100390.53;5077838;28;45367;-67
2021/12/24 07:41:46;;;;;;;;;28.00;25.50;;;;;9.36;80.05;100395.75;5075006;28;45644;-67
2021/12/24 07:44:12;;;;;;;;;25.50;23.00;;;;;9.22;80.12;100375.69;5075260;27;46238;-67
2021/12/24 07:46:44;;;;;;;;;28.25;25.25;;;;;9.31;80.75;100391.38;5107569;27;45352;-67
2021/12/24 07:52:02;;;;;;;;;26.50;22.50;;;;;9.41;79.85;100414.94;5076189;28;45341;-67
2021/12/24 07:54:29;;;;;;;;;23.25;21.00;;;;;9.45;79.44;100416.69;5079154;28;46346;-67
2021/12/24 07:56:56;;;;;;;;;24.00;19.50;;;;;9.47;79.38;100409.72;5076322;28;45372;-67
2021/12/24 07:59:22;;;;;;;;;26.75;20.75;;;;;9.52;79.77;100410.59;5074404;28;45496;-67
2021/12/24 08:01:47;;;;;;;;;24.50;23.50;;;;;9.51;79.81;100408.84;5074775;28;45350;-67
2021/12/24 08:04:17;;;;;;;;;19.50;19.00;;;;;9.54;79.83;100406.25;5075132;28;46235;-67
2021/12/24 08:06:42;;;;;;;;;20.50;18.50;;;;;9.52;79.80;100389.69;5074978;28;45785;-67
2021/12/24 08:09:08;;;;;;;;;22.25;19.00;;;;;9.52;79.97;100393.16;5074297;28;45393;-67
2021/12/24 08:11:34;;;;;;;;;18.50;15.25;;;;;9.57;79.85;100401.00;5074304;28;45404;-66
2021/12/24 08:14:03;;;;;;;;;18.00;18.00;;;;;9.54;80.06;100387.94;5077267;28;46489;-67
2021/12/24 08:16:29;;;;;;;;;13.50;13.50;;;;;9.55;79.77;100371.38;5078011;28;45287;-66
2021/12/24 08:18:56;;;;;;;;;16.75;13.25;;;;;9.63;80.02;100381.81;5074357;28;45484;-67
2021/12/24 08:21:22;;;;;;;;;16.50;14.75;;;;;9.63;80.52;100385.31;5058777;28;45623;-67
2021/12/24 08:23:48;;;;;;;;;21.75;16.00;;;;;9.64;80.18;100384.44;5074018;27;45482;-67
2021/12/24 08:26:15;;;;;;;;;17.50;15.75;;;;;9.66;80.29;100376.63;5074318;27;45493;-67
2021/12/24 08:28:41;;;;;;;;;17.00;16.50;;;;;9.65;80.08;100372.25;5074083;27;45604;-66
2021/12/24 08:31:08;;;;;;;;;21.00;17.25;;;;;9.61;80.34;100366.16;5074220;27;45876;-67
2021/12/24 08:33:34;;;;;;;;;20.50;17.75;;;;;9.64;80.50;100381.84;5073628;27;46308;-66
2021/12/24 08:36:04;;;;;;;;;22.75;18.00;;;;;9.65;80.37;100383.56;5073998;27;45416;-67
2021/12/24 08:38:30;;;;;;;;;19.50;16.25;;;;;9.66;79.97;100385.31;5076737;27;45329;-67
2021/12/24 08:40:55;;;;;;;;;22.50;17.25;;;;;9.62;80.43;100373.09;5078819;27;45448;-67
2021/12/24 08:43:21;;;;;;;;;20.50;18.25;;;;;9.67;80.75;100375.72;5072634;27;45932;-66
2021/12/24 08:45:46;;;;;;;;;20.25;19.00;;;;;9.57;80.81;100361.78;5065818;28;45340;-67
2021/12/24 08:48:12;;;;;;;;;19.50;17.00;;;;;9.67;80.48;100365.28;5070230;28;45573;-66
2021/12/24 08:50:38;;;;;;;;;20.00;17.25;;;;;9.69;80.54;100364.41;5077381;27;45518;-67
2021/12/24 08:53:04;;;;;;;;;15.50;15.50;;;;;9.74;80.46;100367.88;5077445;27;46677;-67
2021/12/24 08:55:30;;;;;;;;;16.25;14.25;;;;;9.75;80.60;100366.13;5077484;28;45507;-67
2021/12/24 08:57:55;;;;;;;;;14.00;13.50;;;;;9.79;80.36;100372.25;5076724;27;45475;-68
2021/12/24 09:00:23;;;;;;;;;23.00;18.00;;;;;9.81;80.08;100360.91;5077421;27;45489;-66
2021/12/24 09:02:49;;;;;;;;;19.00;17.75;;;;;9.75;80.64;100355.66;5077242;27;45593;-66
2021/12/24 09:05:15;;;;;;;;;21.00;16.50;;;;;9.75;80.68;100358.28;5077587;27;45438;-69
2021/12/24 09:07:41;;;;;;;;;16.75;16.00;;;;;9.86;80.20;100363.50;5076976;27;45498;-66
2021/12/24 09:10:11;;;;;;;;;17.25;15.00;;;;;9.90;80.43;100368.75;5076943;28;45312;-67
2021/12/24 09:12:37;;;;;;;;;15.25;14.00;;;;;9.83;80.19;100355.69;5076706;28;45813;-69
2021/12/24 09:15:04;;;;;;;;;18.75;14.50;;;;;9.89;80.42;100361.75;5109140;27;45477;-68
2021/12/24 09:17:30;;;;;;;;;17.25;16.75;;;;;9.97;80.13;100365.25;5077553;28;45349;-67
2021/12/24 09:19:57;;;;;;;;;18.50;14.50;;;;;10.02;80.02;100370.47;5077725;28;45344;-70
2021/12/24 09:22:29;;;;;;;;;16.75;16.25;;;;;10.05;79.93;100373.06;5076566;27;46397;-67
2021/12/24 09:24:56;;;;;;;;;17.75;15.25;;;;;10.06;79.77;100376.56;5078188;27;45805;-69
2021/12/24 09:27:22;;;;;;;;;15.50;15.25;;;;;10.11;79.65;100377.44;5076797;28;45480;-67
2021/12/24 09:29:47;;;;;;;;;16.25;15.50;;;;;10.11;80.04;100378.31;5076788;28;45636;-68
2021/12/24 09:32:14;;;;;;;;;18.50;16.75;;;;;10.10;79.74;100376.56;5076796;28;46008;-68
2021/12/24 09:34:39;;;;;;;;;20.25;16.00;;;;;9.96;79.93;100360.88;5076463;28;45724;-69
2021/12/24 09:37:05;;;;;;;;;18.00;14.75;;;;;10.06;79.80;100373.94;5076553;28;45515;-68
2021/12/24 09:39:34;;;;;;;;;19.00;17.50;;;;;10.07;79.99;100371.34;5080467;28;45466;-67
2021/12/24 09:42:00;;;;;;;;;20.25;17.50;;;;;10.11;79.87;100378.31;5080268;28;45492;-67
2021/12/24 09:44:28;;;;;;;;;21.25;17.00;;;;;10.12;79.84;100371.31;5076449;28;45851;-68
2021/12/24 09:46:55;;;;;;;;;13.25;13.00;;;;;10.15;79.81;100361.72;5076690;28;45453;-69
2021/12/24 09:49:22;;;;;;;;;20.00;18.00;;;;;10.22;80.13;100366.94;5077336;28;45335;-68
2021/12/24 09:51:51;;;;;;;;;17.75;17.00;;;;;10.27;79.53;100363.41;5075867;28;46618;-68
2021/12/24 09:54:20;;;;;;;;;19.50;17.50;;;;;10.33;79.89;100359.97;5076132;28;45345;-70
2021/12/24 09:56:47;;;;;;;;;19.75;18.75;;;;;10.26;79.48;100345.13;5076049;28;45364;-68
2021/12/24 09:59:13;;;;;;;;;21.75;20.00;;;;;10.40;79.24;100364.31;5076970;28;45532;-67
2021/12/24 10:01:49;;;;;;;;;20.75;19.50;;;;;10.32;79.53;100372.19;5070855;28;45440;-67
2021/12/24 10:04:19;;;;;;;;;22.25;21.00;;;;;10.36;79.56;100373.03;5072220;28;45593;-68
2021/12/24 10:06:56;;;;;;;;;20.50;18.00;;;;;10.30;79.68;100362.59;5080394;28;45492;-67
2021/12/24 10:09:29;;;;;;;;;21.50;18.50;;;;;10.27;79.44;100347.72;5079251;27;45346;-68
2021/12/24 10:12:01;;;;;;;;;20.75;20.75;;;;;10.39;79.21;100354.69;5078219;28;45495;-68
2021/12/24 10:14:33;;;;;;;;;19.75;18.00;;;;;10.37;79.66;100348.63;5081406;28;45370;-68
2021/12/24 10:17:00;;;;;;;;;20.75;18.00;;;;;10.25;79.66;100318.09;5068913;28;45509;-68
2021/12/24 10:19:26;;;;;;;;;19.75;16.25;;;;;10.43;79.39;100337.25;5069492;28;45438;-70
2021/12/24 10:22:00;;;;;;;;;15.00;13.50;;;;;10.51;79.12;100338.06;5065242;28;46672;-66
2021/12/24 10:24:27;;;;;;;;;23.25;18.75;;;;;10.44;79.26;100318.91;5079118;28;45539;-67
2021/12/24 10:26:58;;;;;;;;;17.50;16.75;;;;;10.57;79.19;100351.16;5068419;28;45330;-67
2021/12/24 10:29:32;;;;;;;;;16.50;16.00;;;;;10.60;78.89;100345.88;5069910;28;45366;-68
2021/12/24 10:32:08;;;;;;;;;22.75;17.00;;;;;10.58;79.08;100331.94;5055717;28;46329;-69
2021/12/24 10:34:36;;;;;;;;;17.00;16.00;;;;;10.64;78.76;100338.91;5059887;28;45267;-67
2021/12/24 10:37:18;;;;;;;;;18.00;16.00;;;;;10.60;78.77;100336.28;5070520;28;45326;-68
2021/12/24 10:40:02;;;;;;;;;22.50;18.50;;;;;10.63;78.77;100329.28;5073106;28;45525;-69
2021/12/24 10:42:35;;;;;;;;;20.00;17.00;;;;;10.63;79.06;100324.06;5071746;28;46947;-68
2021/12/24 10:45:07;;;;;;;;;18.50;17.00;;;;;10.66;78.87;100310.97;5064020;27;45515;-69
2021/12/24 10:47:37;;;;;;;;;18.50;16.25;;;;;10.65;78.78;100312.69;5073533;28;45485;-67
2021/12/24 10:50:26;;;;;;;;;18.25;17.50;;;;;10.66;78.90;100318.81;5070374;28;45832;-68
2021/12/24 10:53:12;;;;;;;;;16.25;16.25;;;;;10.71;78.51;100310.06;5059200;28;45424;-69
2021/12/24 10:55:45;;;;;;;;;21.00;18.25;;;;;10.74;78.54;100310.03;5069209;27;45737;-66
2021/12/24 10:58:20;;;;;;;;;22.00;18.75;;;;;10.84;78.28;100313.47;5057657;28;45529;-68
2021/12/24 11:00:50;;;;;;;;;18.25;16.25;;;;;10.90;78.28;100313.44;5073243;28;45484;-67
2021/12/24 11:03:21;;;;;;;;;16.00;13.00;;;;;10.89;77.97;100301.22;5079486;27;46017;-67
2021/12/24 11:05:51;;;;;;;;;19.00;17.75;;;;;10.93;77.61;100284.59;5076684;28;45476;-67
2021/12/24 11:08:19;;;;;;;;;18.25;18.00;;;;;10.92;78.22;100276.75;5068760;28;45432;-68
2021/12/24 11:10:51;;;;;;;;;3.00;3.00;;;;;10.91;77.50;100273.25;5077513;28;45343;-67
2021/12/24 11:13:28;;;;;;;;;18.00;14.75;;;;;11.01;78.08;100284.56;5074202;28;45816;-70
2021/12/24 11:15:54;;;;;;;;;17.25;14.00;;;;;10.83;77.92;100248.84;5062644;28;45445;-68
2021/12/24 11:18:27;;;;;;;;;14.75;13.75;;;;;10.99;77.39;100266.22;5069951;28;45465;-68
2021/12/24 11:21:02;;;;;;;;;19.00;17.50;;;;;10.94;77.82;100246.16;5056312;28;45272;-68
2021/12/24 11:23:31;;;;;;;;;15.25;13.50;;;;;10.98;77.44;100248.72;5070979;28;46362;-67
2021/12/24 11:26:05;;;;;;;;;19.75;16.00;;;;;10.95;77.80;100246.16;5062540;28;45389;-68
2021/12/24 11:28:33;;;;;;;;;16.50;15.00;;;;;10.98;77.44;100248.72;5055030;28;45303;-66
2021/12/24 11:31:10;;;;;;;;;19.50;16.00;;;;;10.99;77.52;100249.63;5056617;28;45346;-66
2021/12/24 11:33:38;;;;;;;;;19.50;15.00;;;;;10.98;77.62;100256.59;5054228;28;46426;-67
2021/12/24 11:36:06;;;;;;;;;15.75;13.00;;;;;10.94;76.96;100244.41;5064730;28;45508;-67
2021/12/24 11:38:40;;;;;;;;;18.00;15.25;;;;;10.98;77.67;100246.09;5064895;28;45409;-67
2021/12/24 11:41:11;;;;;;;;;17.00;14.75;;;;;10.87;77.60;100213.91;5054273;28;45476;-68
2021/12/24 11:43:39;;;;;;;;;21.00;18.00;;;;;10.93;77.89;100228.69;5062278;28;45897;-67
2021/12/24 11:46:07;;;;;;;;;13.75;13.00;;;;;10.94;77.40;100231.31;5062922;28;45651;-67
2021/12/24 11:48:34;;;;;;;;;25.00;23.00;;;;;10.96;77.88;100233.91;5053893;28;45793;-66
2021/12/24 11:51:03;;;;;;;;;20.25;20.25;;;;;11.02;77.46;100237.34;5053147;28;45989;-68
2021/12/24 11:53:30;;;;;;;;;18.00;15.50;;;;;11.04;77.66;100239.97;5052945;28;45495;-67
2021/12/24 11:56:03;;;;;;;;;17.25;16.50;;;;;11.09;77.05;100232.94;5070464;27;45392;-69
2021/12/24 11:58:32;;;;;;;;;15.00;15.00;;;;;11.11;77.67;100239.03;5071390;28;45527;-71
2021/12/24 12:01:03;;;;;;;;;17.00;16.25;;;;;11.13;77.60;100237.28;5077932;28;45384;-70
2021/12/24 12:03:38;;;;;;;;;17.75;17.50;;;;;11.16;77.47;100242.50;5065252;28;45389;-70
2021/12/24 12:06:34;;;;;;;;;19.75;15.50;;;;;11.18;77.35;100230.25;5057882;28;45518;-68
2021/12/24 12:09:04;;;;;;;;;18.00;16.50;;;;;11.01;76.96;100212.03;5069569;28;45519;-70
2021/12/24 12:11:32;;;;;;;;;18.50;14.25;;;;;11.24;77.19;100237.19;5061088;28;45373;-70
2021/12/24 12:14:01;;;;;;;;;21.75;20.50;;;;;11.27;77.32;100231.94;5069142;27;47094;-68
2021/12/24 12:16:47;;;;;;;;;24.75;18.50;;;;;11.23;77.06;100225.81;5062854;28;45452;-71
2021/12/24 12:19:31;;;;;;;;;18.25;17.50;;;;;11.30;76.68;100238.91;5075778;28;45393;-69
2021/12/24 12:22:20;;;;;;;;;21.25;17.75;;;;;11.29;76.61;100235.38;5076425;27;45455;-65
2021/12/24 12:24:59;;;;;;;;;23.00;18.00;;;;;11.35;76.66;100235.34;5052608;28;45538;-67
2021/12/24 12:27:55;;;;;;;;;19.25;18.00;;;;;11.38;76.48;100244.94;5058041;28;45879;-65
2021/12/24 12:30:36;;;;;;;;;19.25;17.25;;;;;11.39;76.71;100238.78;5066459;28;45329;-65
2021/12/24 12:33:09;;;;;;;;;16.00;14.50;;;;;11.36;76.99;100242.31;5070926;27;45424;-64
2021/12/24 12:35:45;;;;;;;;;19.50;18.25;;;;;11.38;76.47;100243.16;5057739;27;46174;-65
2021/12/24 12:38:31;;;;;;;;;15.75;15.00;;;;;11.38;76.44;100227.44;5054964;28;45453;-67
2021/12/24 12:41:34;;;;;;;;;21.50;17.50;;;;;11.28;77.17;100202.19;5055010;28;45368;-64
2021/12/24 12:44:06;;;;;;;;;20.25;18.00;;;;;11.37;77.07;100225.72;5063788;28;45778;-65
2021/12/24 12:46:35;;;;;;;;;18.75;17.00;;;;;11.38;76.48;100232.69;5052690;28;45698;-63
2021/12/24 12:49:07;;;;;;;;;19.25;16.50;;;;;11.39;76.74;100225.66;5071970;28;45520;-65
2021/12/24 12:52:16;;;;;;;;;21.25;19.00;;;;;11.35;76.94;100200.38;5055991;28;45517;-65
2021/12/24 12:54:46;;;;;;;;;17.50;17.25;;;;;11.45;76.72;100218.63;5049408;28;45570;-64
2021/12/24 12:57:30;;;;;;;;;19.00;14.50;;;;;11.42;76.27;100195.06;5064207;28;45492;-65
2021/12/24 13:00:08;;;;;;;;;18.75;17.50;;;;;11.49;76.27;100200.25;5061651;28;45445;-68
2021/12/24 13:03:07;;;;;;;;;17.00;15.25;;;;;11.51;76.09;100185.34;5068592;28;46503;-65
2021/12/24 13:05:42;;;;;;;;;20.25;16.50;;;;;11.54;76.09;100193.19;5091968;27;45629;-65
2021/12/24 13:08:13;;;;;;;;;16.25;14.50;;;;;11.48;76.29;100185.38;5065505;28;45534;-65